KEVW/EVW METAR and TAF weather

Enter ICAO airport designator
Station Type Date Time Source
KEVW METAR 2021/05/13 04:53 UTC NOAA

KEVW 130453Z AUTO 26006KT 10SM CLR 08/M09 A3027 RMK AO2 SLP198 T00831094


Station Type Date Time Source
KEVW Decoded METAR 2021/05/13 04:53 UTC NOAA

EVANSTON-UINTA COUNTY FIELD, WY, United States (KEVW) 41-16N 111-02W 2177M
May 13, 2021 - 12:53 AM EDT / 2021.05.13 0453 UTC
Wind: from the W (260 degrees) at 7 MPH (6 KT):0
Visibility: 10 mile(s):0
Sky conditions: clear
Temperature: 46.9 F (8.3 C)
Dew Point: 15.1 F (-9.4 C)
Relative Humidity: 27%
Pressure (altimeter): 30.27 in. Hg (1025 hPa)
ob: KEVW 130453Z AUTO 26006KT 10SM CLR 08/M09 A3027 RMK AO2 SLP198 T00831094
cycle: 5

Station Type Date Time Source
KEVW TAF 2021/05/12 18:39 UTC NOAA

TAF KEVW 121735Z 1218/1318 26009KT P6SM SCT250
FM130300 18005KT P6SM FEW250
FM130600 15005KT P6SM FEW250
FM131500 26011KT P6SM FEW200

Example: see airport list